sensor_id;sensor_type;location;lat;lon;timestamp;P1;durP1;ratioP1;P2;durP2;ratioP2
45354;SDS011;31091;48.758;9.150;2023-08-24T00:00:03;11.25;;;4.35;;
45354;SDS011;31091;48.758;9.150;2023-08-24T00:02:49;5.45;;;3.88;;
45354;SDS011;31091;48.758;9.150;2023-08-24T00:05:35;7.50;;;4.57;;
45354;SDS011;31091;48.758;9.150;2023-08-24T00:08:23;5.72;;;4.30;;
45354;SDS011;31091;48.758;9.150;2023-08-24T00:11:09;5.95;;;4.40;;
45354;SDS011;31091;48.758;9.150;2023-08-24T00:13:59;7.10;;;4.60;;
45354;SDS011;31091;48.758;9.150;2023-08-24T00:16:44;8.57;;;4.32;;
45354;SDS011;31091;48.758;9.150;2023-08-24T00:19:30;7.45;;;4.68;;
45354;SDS011;31091;48.758;9.150;2023-08-24T00:22:15;5.47;;;3.65;;
45354;SDS011;31091;48.758;9.150;2023-08-24T00:25:00;8.15;;;4.55;;
45354;SDS011;31091;48.758;9.150;2023-08-24T00:27:45;7.25;;;4.63;;
45354;SDS011;31091;48.758;9.150;2023-08-24T00:30:30;6.97;;;4.55;;
45354;SDS011;31091;48.758;9.150;2023-08-24T00:33:16;6.65;;;4.53;;
45354;SDS011;31091;48.758;9.150;2023-08-24T00:36:01;7.60;;;4.97;;
45354;SDS011;31091;48.758;9.150;2023-08-24T00:38:47;8.50;;;5.43;;
45354;SDS011;31091;48.758;9.150;2023-08-24T00:41:35;8.15;;;5.00;;
45354;SDS011;31091;48.758;9.150;2023-08-24T00:44:21;6.05;;;4.50;;
45354;SDS011;31091;48.758;9.150;2023-08-24T00:47:06;8.82;;;4.13;;
45354;SDS011;31091;48.758;9.150;2023-08-24T00:49:52;8.30;;;4.88;;
45354;SDS011;31091;48.758;9.150;2023-08-24T00:52:38;7.90;;;4.30;;
45354;SDS011;31091;48.758;9.150;2023-08-24T00:55:24;7.72;;;4.53;;
45354;SDS011;31091;48.758;9.150;2023-08-24T00:58:09;9.68;;;4.70;;
45354;SDS011;31091;48.758;9.150;2023-08-24T01:00:55;8.85;;;4.82;;
45354;SDS011;31091;48.758;9.150;2023-08-24T01:03:41;9.20;;;4.95;;
45354;SDS011;31091;48.758;9.150;2023-08-24T01:06:26;6.20;;;4.07;;
45354;SDS011;31091;48.758;9.150;2023-08-24T01:09:12;12.50;;;4.55;;
45354;SDS011;31091;48.758;9.150;2023-08-24T01:12:02;6.72;;;4.25;;
45354;SDS011;31091;48.758;9.150;2023-08-24T01:14:50;7.72;;;4.72;;
45354;SDS011;31091;48.758;9.150;2023-08-24T01:17:37;6.63;;;4.07;;
45354;SDS011;31091;48.758;9.150;2023-08-24T01:20:24;6.50;;;3.78;;
45354;SDS011;31091;48.758;9.150;2023-08-24T01:26:14;8.43;;;4.20;;
45354;SDS011;31091;48.758;9.150;2023-08-24T01:28:59;5.50;;;4.05;;
45354;SDS011;31091;48.758;9.150;2023-08-24T01:31:47;8.57;;;4.28;;
45354;SDS011;31091;48.758;9.150;2023-08-24T01:34:32;6.78;;;4.32;;
45354;SDS011;31091;48.758;9.150;2023-08-24T01:37:18;7.85;;;4.53;;
45354;SDS011;31091;48.758;9.150;2023-08-24T01:42:55;7.30;;;5.20;;
45354;SDS011;31091;48.758;9.150;2023-08-24T01:45:41;6.78;;;4.68;;
45354;SDS011;31091;48.758;9.150;2023-08-24T01:48:27;8.45;;;4.93;;
45354;SDS011;31091;48.758;9.150;2023-08-24T01:51:14;7.82;;;5.05;;
45354;SDS011;31091;48.758;9.150;2023-08-24T01:54:00;6.55;;;3.97;;
45354;SDS011;31091;48.758;9.150;2023-08-24T01:56:45;7.45;;;4.90;;
45354;SDS011;31091;48.758;9.150;2023-08-24T01:59:31;9.90;;;4.70;;
45354;SDS011;31091;48.758;9.150;2023-08-24T02:02:16;9.32;;;5.80;;
45354;SDS011;31091;48.758;9.150;2023-08-24T02:05:02;7.82;;;4.30;;
45354;SDS011;31091;48.758;9.150;2023-08-24T02:07:47;7.88;;;4.93;;
45354;SDS011;31091;48.758;9.150;2023-08-24T02:10:33;11.25;;;5.60;;
45354;SDS011;31091;48.758;9.150;2023-08-24T02:13:18;6.28;;;4.30;;
45354;SDS011;31091;48.758;9.150;2023-08-24T02:16:04;11.55;;;5.13;;
45354;SDS011;31091;48.758;9.150;2023-08-24T02:18:50;9.63;;;4.68;;
45354;SDS011;31091;48.758;9.150;2023-08-24T02:21:35;8.65;;;4.85;;
45354;SDS011;31091;48.758;9.150;2023-08-24T02:24:20;8.18;;;5.05;;
45354;SDS011;31091;48.758;9.150;2023-08-24T02:27:06;7.35;;;5.57;;
45354;SDS011;31091;48.758;9.150;2023-08-24T02:29:51;7.68;;;4.47;;
45354;SDS011;31091;48.758;9.150;2023-08-24T02:32:36;7.53;;;4.50;;
45354;SDS011;31091;48.758;9.150;2023-08-24T02:35:21;7.93;;;4.82;;
45354;SDS011;31091;48.758;9.150;2023-08-24T02:38:06;6.28;;;4.90;;
45354;SDS011;31091;48.758;9.150;2023-08-24T02:41:04;10.05;;;5.18;;
45354;SDS011;31091;48.758;9.150;2023-08-24T02:43:50;9.20;;;5.60;;
45354;SDS011;31091;48.758;9.150;2023-08-24T02:46:35;6.22;;;4.55;;
45354;SDS011;31091;48.758;9.150;2023-08-24T02:49:20;7.70;;;4.80;;
45354;SDS011;31091;48.758;9.150;2023-08-24T02:52:05;7.82;;;4.75;;
45354;SDS011;31091;48.758;9.150;2023-08-24T02:54:51;7.13;;;4.90;;
45354;SDS011;31091;48.758;9.150;2023-08-24T02:57:36;8.02;;;4.93;;
45354;SDS011;31091;48.758;9.150;2023-08-24T03:00:21;7.78;;;5.43;;
45354;SDS011;31091;48.758;9.150;2023-08-24T03:03:06;8.40;;;5.45;;
45354;SDS011;31091;48.758;9.150;2023-08-24T03:05:55;8.18;;;4.63;;
45354;SDS011;31091;48.758;9.150;2023-08-24T03:08:41;8.52;;;4.70;;
45354;SDS011;31091;48.758;9.150;2023-08-24T03:11:26;6.85;;;5.10;;
45354;SDS011;31091;48.758;9.150;2023-08-24T03:14:11;7.93;;;4.70;;
45354;SDS011;31091;48.758;9.150;2023-08-24T03:16:57;7.13;;;4.80;;
45354;SDS011;31091;48.758;9.150;2023-08-24T03:19:42;5.65;;;4.47;;
45354;SDS011;31091;48.758;9.150;2023-08-24T03:22:27;7.55;;;4.75;;
45354;SDS011;31091;48.758;9.150;2023-08-24T03:25:12;7.80;;;4.78;;
45354;SDS011;31091;48.758;9.150;2023-08-24T03:27:57;9.65;;;5.18;;
45354;SDS011;31091;48.758;9.150;2023-08-24T03:30:47;9.50;;;5.47;;
45354;SDS011;31091;48.758;9.150;2023-08-24T03:33:33;11.80;;;5.93;;
45354;SDS011;31091;48.758;9.150;2023-08-24T03:36:20;9.02;;;4.85;;
45354;SDS011;31091;48.758;9.150;2023-08-24T03:39:06;5.93;;;4.72;;
45354;SDS011;31091;48.758;9.150;2023-08-24T03:41:51;6.97;;;4.85;;
45354;SDS011;31091;48.758;9.150;2023-08-24T03:44:36;10.52;;;5.90;;
45354;SDS011;31091;48.758;9.150;2023-08-24T03:47:21;8.43;;;5.25;;
45354;SDS011;31091;48.758;9.150;2023-08-24T03:50:07;7.03;;;4.93;;
45354;SDS011;31091;48.758;9.150;2023-08-24T03:52:52;8.32;;;5.35;;
45354;SDS011;31091;48.758;9.150;2023-08-24T03:55:39;11.65;;;5.20;;
45354;SDS011;31091;48.758;9.150;2023-08-24T03:58:24;9.00;;;5.30;;
45354;SDS011;31091;48.758;9.150;2023-08-24T04:01:10;9.35;;;5.38;;
45354;SDS011;31091;48.758;9.150;2023-08-24T04:03:55;8.52;;;4.50;;
45354;SDS011;31091;48.758;9.150;2023-08-24T04:06:40;8.27;;;5.93;;
45354;SDS011;31091;48.758;9.150;2023-08-24T04:09:26;9.55;;;5.85;;
45354;SDS011;31091;48.758;9.150;2023-08-24T04:12:11;9.70;;;4.53;;
45354;SDS011;31091;48.758;9.150;2023-08-24T04:14:56;8.20;;;4.47;;
45354;SDS011;31091;48.758;9.150;2023-08-24T04:17:42;7.30;;;4.53;;
45354;SDS011;31091;48.758;9.150;2023-08-24T04:20:28;9.88;;;5.35;;
45354;SDS011;31091;48.758;9.150;2023-08-24T04:23:13;6.93;;;5.05;;
45354;SDS011;31091;48.758;9.150;2023-08-24T04:25:58;6.40;;;5.00;;
45354;SDS011;31091;48.758;9.150;2023-08-24T04:28:44;7.25;;;5.10;;
45354;SDS011;31091;48.758;9.150;2023-08-24T04:31:29;7.43;;;5.25;;
45354;SDS011;31091;48.758;9.150;2023-08-24T04:34:14;8.50;;;4.72;;
45354;SDS011;31091;48.758;9.150;2023-08-24T04:36:59;9.82;;;4.63;;
45354;SDS011;31091;48.758;9.150;2023-08-24T04:39:46;10.02;;;4.72;;
45354;SDS011;31091;48.758;9.150;2023-08-24T04:42:31;10.00;;;5.13;;
45354;SDS011;31091;48.758;9.150;2023-08-24T04:45:16;7.00;;;4.40;;
45354;SDS011;31091;48.758;9.150;2023-08-24T04:48:02;6.90;;;4.40;;
45354;SDS011;31091;48.758;9.150;2023-08-24T04:50:48;10.30;;;4.75;;
45354;SDS011;31091;48.758;9.150;2023-08-24T04:53:34;8.27;;;5.18;;
45354;SDS011;31091;48.758;9.150;2023-08-24T04:56:19;7.03;;;5.18;;
45354;SDS011;31091;48.758;9.150;2023-08-24T04:59:04;7.72;;;4.88;;
45354;SDS011;31091;48.758;9.150;2023-08-24T05:01:50;7.35;;;5.45;;
45354;SDS011;31091;48.758;9.150;2023-08-24T05:04:35;8.30;;;4.90;;
45354;SDS011;31091;48.758;9.150;2023-08-24T05:07:20;10.00;;;5.18;;
45354;SDS011;31091;48.758;9.150;2023-08-24T05:10:06;6.88;;;5.03;;
45354;SDS011;31091;48.758;9.150;2023-08-24T05:12:51;10.65;;;5.70;;
45354;SDS011;31091;48.758;9.150;2023-08-24T05:15:36;7.65;;;5.20;;
45354;SDS011;31091;48.758;9.150;2023-08-24T05:18:22;8.23;;;5.30;;
45354;SDS011;31091;48.758;9.150;2023-08-24T05:21:07;9.10;;;4.90;;
45354;SDS011;31091;48.758;9.150;2023-08-24T05:23:52;12.27;;;5.47;;
45354;SDS011;31091;48.758;9.150;2023-08-24T05:26:37;7.97;;;4.90;;
45354;SDS011;31091;48.758;9.150;2023-08-24T05:29:22;7.85;;;4.70;;
45354;SDS011;31091;48.758;9.150;2023-08-24T05:32:08;8.10;;;5.15;;
45354;SDS011;31091;48.758;9.150;2023-08-24T05:34:53;8.82;;;5.45;;
45354;SDS011;31091;48.758;9.150;2023-08-24T05:37:38;9.90;;;4.95;;
45354;SDS011;31091;48.758;9.150;2023-08-24T05:40:24;7.90;;;5.22;;
45354;SDS011;31091;48.758;9.150;2023-08-24T05:43:12;7.68;;;4.78;;
45354;SDS011;31091;48.758;9.150;2023-08-24T05:45:57;8.35;;;4.38;;
45354;SDS011;31091;48.758;9.150;2023-08-24T05:48:42;8.25;;;4.75;;
45354;SDS011;31091;48.758;9.150;2023-08-24T05:51:27;8.48;;;5.05;;
45354;SDS011;31091;48.758;9.150;2023-08-24T05:54:14;8.50;;;5.78;;
45354;SDS011;31091;48.758;9.150;2023-08-24T05:57:06;11.48;;;6.07;;
45354;SDS011;31091;48.758;9.150;2023-08-24T05:59:51;12.07;;;5.22;;
45354;SDS011;31091;48.758;9.150;2023-08-24T06:02:39;12.10;;;5.93;;
45354;SDS011;31091;48.758;9.150;2023-08-24T06:05:25;6.95;;;4.90;;
45354;SDS011;31091;48.758;9.150;2023-08-24T06:08:11;10.10;;;5.53;;
45354;SDS011;31091;48.758;9.150;2023-08-24T06:10:56;10.77;;;5.93;;
45354;SDS011;31091;48.758;9.150;2023-08-24T06:13:42;12.75;;;5.70;;
45354;SDS011;31091;48.758;9.150;2023-08-24T06:16:27;6.93;;;5.22;;
45354;SDS011;31091;48.758;9.150;2023-08-24T06:19:13;6.30;;;4.65;;
45354;SDS011;31091;48.758;9.150;2023-08-24T06:21:59;13.95;;;5.70;;
45354;SDS011;31091;48.758;9.150;2023-08-24T06:24:44;14.20;;;5.70;;
45354;SDS011;31091;48.758;9.150;2023-08-24T06:27:29;10.68;;;4.68;;
45354;SDS011;31091;48.758;9.150;2023-08-24T06:30:14;9.07;;;4.65;;
45354;SDS011;31091;48.758;9.150;2023-08-24T06:33:00;8.63;;;4.22;;
45354;SDS011;31091;48.758;9.150;2023-08-24T06:35:45;8.75;;;5.15;;
45354;SDS011;31091;48.758;9.150;2023-08-24T06:38:31;7.05;;;4.65;;
45354;SDS011;31091;48.758;9.150;2023-08-24T06:41:16;8.88;;;4.63;;
45354;SDS011;31091;48.758;9.150;2023-08-24T06:44:02;8.52;;;5.55;;
45354;SDS011;31091;48.758;9.150;2023-08-24T06:46:47;10.07;;;5.03;;
45354;SDS011;31091;48.758;9.150;2023-08-24T06:49:32;6.22;;;4.47;;
45354;SDS011;31091;48.758;9.150;2023-08-24T06:52:17;8.88;;;5.22;;
45354;SDS011;31091;48.758;9.150;2023-08-24T06:55:03;11.23;;;5.55;;
45354;SDS011;31091;48.758;9.150;2023-08-24T06:57:48;8.93;;;5.28;;
45354;SDS011;31091;48.758;9.150;2023-08-24T07:00:36;9.05;;;4.53;;
45354;SDS011;31091;48.758;9.150;2023-08-24T07:03:22;8.48;;;4.20;;
45354;SDS011;31091;48.758;9.150;2023-08-24T07:06:07;11.50;;;4.47;;
45354;SDS011;31091;48.758;9.150;2023-08-24T07:08:52;9.88;;;4.13;;
45354;SDS011;31091;48.758;9.150;2023-08-24T07:11:37;9.65;;;4.13;;
45354;SDS011;31091;48.758;9.150;2023-08-24T07:14:23;10.65;;;4.68;;
45354;SDS011;31091;48.758;9.150;2023-08-24T07:17:08;6.93;;;4.78;;
45354;SDS011;31091;48.758;9.150;2023-08-24T07:19:53;7.68;;;4.50;;
45354;SDS011;31091;48.758;9.150;2023-08-24T07:22:38;6.78;;;4.03;;
45354;SDS011;31091;48.758;9.150;2023-08-24T07:25:24;7.88;;;4.18;;
45354;SDS011;31091;48.758;9.150;2023-08-24T07:28:09;6.25;;;4.50;;
45354;SDS011;31091;48.758;9.150;2023-08-24T07:30:54;9.93;;;4.80;;
45354;SDS011;31091;48.758;9.150;2023-08-24T07:33:41;7.70;;;4.63;;
45354;SDS011;31091;48.758;9.150;2023-08-24T07:36:29;7.13;;;4.03;;
45354;SDS011;31091;48.758;9.150;2023-08-24T07:39:15;7.97;;;4.88;;
45354;SDS011;31091;48.758;9.150;2023-08-24T07:42:00;11.48;;;5.30;;
45354;SDS011;31091;48.758;9.150;2023-08-24T07:44:45;9.50;;;5.05;;
45354;SDS011;31091;48.758;9.150;2023-08-24T07:47:30;12.18;;;5.60;;
45354;SDS011;31091;48.758;9.150;2023-08-24T07:50:16;10.48;;;4.75;;
45354;SDS011;31091;48.758;9.150;2023-08-24T07:53:01;11.68;;;5.30;;
45354;SDS011;31091;48.758;9.150;2023-08-24T07:55:46;10.10;;;5.00;;
45354;SDS011;31091;48.758;9.150;2023-08-24T07:58:32;8.68;;;4.80;;
45354;SDS011;31091;48.758;9.150;2023-08-24T08:01:17;11.48;;;4.60;;
45354;SDS011;31091;48.758;9.150;2023-08-24T08:04:03;10.65;;;5.07;;
45354;SDS011;31091;48.758;9.150;2023-08-24T08:06:48;12.65;;;5.47;;
45354;SDS011;31091;48.758;9.150;2023-08-24T08:09:33;11.52;;;5.20;;
45354;SDS011;31091;48.758;9.150;2023-08-24T08:12:18;8.40;;;4.80;;
45354;SDS011;31091;48.758;9.150;2023-08-24T08:15:03;7.28;;;4.18;;
45354;SDS011;31091;48.758;9.150;2023-08-24T08:17:49;9.27;;;4.97;;
45354;SDS011;31091;48.758;9.150;2023-08-24T08:20:34;12.63;;;5.38;;
45354;SDS011;31091;48.758;9.150;2023-08-24T08:23:20;8.13;;;4.72;;
45354;SDS011;31091;48.758;9.150;2023-08-24T08:26:05;13.25;;;4.93;;
45354;SDS011;31091;48.758;9.150;2023-08-24T08:28:50;10.18;;;4.85;;
45354;SDS011;31091;48.758;9.150;2023-08-24T08:31:36;9.60;;;4.72;;
45354;SDS011;31091;48.758;9.150;2023-08-24T08:34:21;12.48;;;4.68;;
45354;SDS011;31091;48.758;9.150;2023-08-24T08:37:06;8.77;;;4.38;;
45354;SDS011;31091;48.758;9.150;2023-08-24T08:39:52;9.98;;;5.03;;
45354;SDS011;31091;48.758;9.150;2023-08-24T08:42:37;7.22;;;4.28;;
45354;SDS011;31091;48.758;9.150;2023-08-24T08:45:24;9.63;;;4.82;;
45354;SDS011;31091;48.758;9.150;2023-08-24T08:48:09;7.13;;;3.45;;
45354;SDS011;31091;48.758;9.150;2023-08-24T08:50:57;8.65;;;4.13;;
45354;SDS011;31091;48.758;9.150;2023-08-24T08:53:42;9.23;;;4.32;;
45354;SDS011;31091;48.758;9.150;2023-08-24T08:56:29;11.93;;;4.05;;
45354;SDS011;31091;48.758;9.150;2023-08-24T08:59:14;11.00;;;4.88;;
45354;SDS011;31091;48.758;9.150;2023-08-24T09:02:03;7.45;;;3.97;;
45354;SDS011;31091;48.758;9.150;2023-08-24T09:04:48;9.02;;;4.50;;
45354;SDS011;31091;48.758;9.150;2023-08-24T09:07:35;6.57;;;4.35;;
45354;SDS011;31091;48.758;9.150;2023-08-24T09:10:23;6.30;;;3.95;;
45354;SDS011;31091;48.758;9.150;2023-08-24T09:13:08;6.05;;;3.38;;
45354;SDS011;31091;48.758;9.150;2023-08-24T09:15:53;6.72;;;4.25;;
45354;SDS011;31091;48.758;9.150;2023-08-24T09:18:39;6.32;;;3.97;;
45354;SDS011;31091;48.758;9.150;2023-08-24T09:21:24;7.25;;;3.80;;
45354;SDS011;31091;48.758;9.150;2023-08-24T09:24:10;12.18;;;4.30;;
45354;SDS011;31091;48.758;9.150;2023-08-24T09:26:55;6.40;;;3.90;;
45354;SDS011;31091;48.758;9.150;2023-08-24T09:29:41;4.63;;;3.17;;
45354;SDS011;31091;48.758;9.150;2023-08-24T09:32:30;8.05;;;4.60;;
45354;SDS011;31091;48.758;9.150;2023-08-24T09:35:15;11.30;;;4.00;;
45354;SDS011;31091;48.758;9.150;2023-08-24T09:38:01;11.50;;;4.45;;
45354;SDS011;31091;48.758;9.150;2023-08-24T09:40:48;9.93;;;4.35;;
45354;SDS011;31091;48.758;9.150;2023-08-24T09:43:35;7.95;;;3.60;;
45354;SDS011;31091;48.758;9.150;2023-08-24T09:46:21;5.05;;;3.58;;
45354;SDS011;31091;48.758;9.150;2023-08-24T09:49:10;6.10;;;3.55;;
45354;SDS011;31091;48.758;9.150;2023-08-24T09:51:56;10.32;;;4.68;;
45354;SDS011;31091;48.758;9.150;2023-08-24T09:54:42;6.47;;;3.92;;
45354;SDS011;31091;48.758;9.150;2023-08-24T09:57:28;6.57;;;3.40;;
45354;SDS011;31091;48.758;9.150;2023-08-24T10:00:13;6.03;;;3.63;;
45354;SDS011;31091;48.758;9.150;2023-08-24T10:03:01;7.97;;;3.97;;
45354;SDS011;31091;48.758;9.150;2023-08-24T10:05:52;7.40;;;3.45;;
45354;SDS011;31091;48.758;9.150;2023-08-24T10:08:43;8.82;;;3.80;;
45354;SDS011;31091;48.758;9.150;2023-08-24T10:11:29;6.03;;;3.80;;
45354;SDS011;31091;48.758;9.150;2023-08-24T10:14:19;10.52;;;4.22;;
45354;SDS011;31091;48.758;9.150;2023-08-24T10:17:06;6.78;;;3.35;;
45354;SDS011;31091;48.758;9.150;2023-08-24T10:19:52;6.72;;;3.83;;
45354;SDS011;31091;48.758;9.150;2023-08-24T10:22:38;7.95;;;3.58;;
45354;SDS011;31091;48.758;9.150;2023-08-24T10:25:26;4.67;;;3.50;;
45354;SDS011;31091;48.758;9.150;2023-08-24T10:28:13;7.90;;;3.90;;
45354;SDS011;31091;48.758;9.150;2023-08-24T10:30:59;5.32;;;3.53;;
45354;SDS011;31091;48.758;9.150;2023-08-24T10:33:45;7.43;;;3.85;;
45354;SDS011;31091;48.758;9.150;2023-08-24T10:36:31;6.95;;;4.03;;
45354;SDS011;31091;48.758;9.150;2023-08-24T10:39:17;5.13;;;3.95;;
45354;SDS011;31091;48.758;9.150;2023-08-24T10:42:02;5.03;;;3.58;;
45354;SDS011;31091;48.758;9.150;2023-08-24T10:44:47;8.57;;;4.00;;
45354;SDS011;31091;48.758;9.150;2023-08-24T10:47:34;5.78;;;4.45;;
45354;SDS011;31091;48.758;9.150;2023-08-24T10:50:28;8.10;;;4.10;;
45354;SDS011;31091;48.758;9.150;2023-08-24T10:53:20;7.30;;;4.80;;
45354;SDS011;31091;48.758;9.150;2023-08-24T10:56:19;6.82;;;4.18;;
45354;SDS011;31091;48.758;9.150;2023-08-24T10:59:14;6.28;;;4.13;;
45354;SDS011;31091;48.758;9.150;2023-08-24T11:02:00;10.35;;;5.68;;
45354;SDS011;31091;48.758;9.150;2023-08-24T11:05:15;20.70;;;9.90;;
45354;SDS011;31091;48.758;9.150;2023-08-24T11:08:02;35.67;;;23.23;;
45354;SDS011;31091;48.758;9.150;2023-08-24T11:10:47;58.85;;;38.20;;
45354;SDS011;31091;48.758;9.150;2023-08-24T11:13:32;56.38;;;37.83;;
45354;SDS011;31091;48.758;9.150;2023-08-24T11:16:38;25.73;;;17.63;;
45354;SDS011;31091;48.758;9.150;2023-08-24T11:19:23;28.25;;;20.40;;
45354;SDS011;31091;48.758;9.150;2023-08-24T11:22:08;26.30;;;18.13;;
45354;SDS011;31091;48.758;9.150;2023-08-24T11:24:53;24.45;;;15.63;;
45354;SDS011;31091;48.758;9.150;2023-08-24T11:27:39;21.02;;;12.00;;
45354;SDS011;31091;48.758;9.150;2023-08-24T11:30:26;16.67;;;10.55;;
45354;SDS011;31091;48.758;9.150;2023-08-24T11:33:11;13.32;;;9.65;;
45354;SDS011;31091;48.758;9.150;2023-08-24T11:35:59;15.32;;;8.45;;
45354;SDS011;31091;48.758;9.150;2023-08-24T11:38:44;14.30;;;7.40;;
45354;SDS011;31091;48.758;9.150;2023-08-24T11:41:29;15.85;;;6.95;;
45354;SDS011;31091;48.758;9.150;2023-08-24T11:44:15;9.82;;;6.53;;
45354;SDS011;31091;48.758;9.150;2023-08-24T11:47:00;11.25;;;6.70;;
45354;SDS011;31091;48.758;9.150;2023-08-24T11:49:45;10.05;;;5.50;;
45354;SDS011;31091;48.758;9.150;2023-08-24T11:52:31;7.38;;;5.47;;
45354;SDS011;31091;48.758;9.150;2023-08-24T11:58:05;9.80;;;5.45;;
45354;SDS011;31091;48.758;9.150;2023-08-24T12:00:58;8.57;;;5.32;;
45354;SDS011;31091;48.758;9.150;2023-08-24T12:03:43;9.38;;;4.95;;
45354;SDS011;31091;48.758;9.150;2023-08-24T12:06:28;10.07;;;5.13;;
45354;SDS011;31091;48.758;9.150;2023-08-24T12:09:14;11.77;;;4.78;;
45354;SDS011;31091;48.758;9.150;2023-08-24T12:12:00;7.68;;;5.03;;
45354;SDS011;31091;48.758;9.150;2023-08-24T12:14:45;7.38;;;4.82;;
45354;SDS011;31091;48.758;9.150;2023-08-24T12:17:41;8.98;;;5.95;;
45354;SDS011;31091;48.758;9.150;2023-08-24T12:20:27;9.65;;;4.88;;
45354;SDS011;31091;48.758;9.150;2023-08-24T12:23:15;9.13;;;5.40;;
45354;SDS011;31091;48.758;9.150;2023-08-24T12:26:00;8.73;;;5.40;;
45354;SDS011;31091;48.758;9.150;2023-08-24T12:28:49;9.18;;;4.78;;
45354;SDS011;31091;48.758;9.150;2023-08-24T12:31:35;9.35;;;5.63;;
45354;SDS011;31091;48.758;9.150;2023-08-24T12:34:21;9.45;;;5.78;;
45354;SDS011;31091;48.758;9.150;2023-08-24T12:37:06;11.80;;;4.60;;
45354;SDS011;31091;48.758;9.150;2023-08-24T12:39:51;9.38;;;4.80;;
45354;SDS011;31091;48.758;9.150;2023-08-24T12:42:38;12.07;;;5.88;;
45354;SDS011;31091;48.758;9.150;2023-08-24T12:45:24;9.40;;;5.45;;
45354;SDS011;31091;48.758;9.150;2023-08-24T12:48:09;8.68;;;5.35;;
45354;SDS011;31091;48.758;9.150;2023-08-24T12:50:55;10.70;;;5.72;;
45354;SDS011;31091;48.758;9.150;2023-08-24T12:53:40;11.32;;;4.85;;
45354;SDS011;31091;48.758;9.150;2023-08-24T12:56:25;9.32;;;4.95;;
45354;SDS011;31091;48.758;9.150;2023-08-24T12:59:10;9.45;;;5.03;;
45354;SDS011;31091;48.758;9.150;2023-08-24T13:01:57;8.98;;;4.68;;
45354;SDS011;31091;48.758;9.150;2023-08-24T13:04:42;11.80;;;4.47;;
45354;SDS011;31091;48.758;9.150;2023-08-24T13:07:28;6.20;;;4.50;;
45354;SDS011;31091;48.758;9.150;2023-08-24T13:10:13;10.55;;;4.90;;
45354;SDS011;31091;48.758;9.150;2023-08-24T13:12:59;8.80;;;4.88;;
45354;SDS011;31091;48.758;9.150;2023-08-24T13:15:44;9.68;;;4.78;;
45354;SDS011;31091;48.758;9.150;2023-08-24T13:18:29;14.38;;;5.82;;
45354;SDS011;31091;48.758;9.150;2023-08-24T13:21:14;11.50;;;5.13;;
45354;SDS011;31091;48.758;9.150;2023-08-24T13:24:00;9.23;;;4.95;;
45354;SDS011;31091;48.758;9.150;2023-08-24T13:26:45;8.70;;;5.05;;
45354;SDS011;31091;48.758;9.150;2023-08-24T13:29:30;9.50;;;5.43;;
45354;SDS011;31091;48.758;9.150;2023-08-24T13:32:15;10.88;;;5.35;;
45354;SDS011;31091;48.758;9.150;2023-08-24T13:35:01;8.48;;;4.88;;
45354;SDS011;31091;48.758;9.150;2023-08-24T13:37:47;9.45;;;5.55;;
45354;SDS011;31091;48.758;9.150;2023-08-24T13:40:32;9.43;;;5.18;;
45354;SDS011;31091;48.758;9.150;2023-08-24T13:43:17;9.43;;;5.38;;
45354;SDS011;31091;48.758;9.150;2023-08-24T13:46:04;12.57;;;4.88;;
45354;SDS011;31091;48.758;9.150;2023-08-24T13:48:50;9.00;;;4.85;;
45354;SDS011;31091;48.758;9.150;2023-08-24T13:51:35;9.82;;;4.63;;
45354;SDS011;31091;48.758;9.150;2023-08-24T13:54:20;11.65;;;4.93;;
45354;SDS011;31091;48.758;9.150;2023-08-24T13:57:06;7.65;;;4.70;;
45354;SDS011;31091;48.758;9.150;2023-08-24T13:59:51;10.15;;;5.10;;
45354;SDS011;31091;48.758;9.150;2023-08-24T14:02:36;15.20;;;5.93;;
45354;SDS011;31091;48.758;9.150;2023-08-24T14:05:22;11.40;;;5.10;;
45354;SDS011;31091;48.758;9.150;2023-08-24T14:08:07;9.25;;;4.85;;
45354;SDS011;31091;48.758;9.150;2023-08-24T14:10:53;13.13;;;5.00;;
45354;SDS011;31091;48.758;9.150;2023-08-24T14:13:38;15.93;;;5.45;;
45354;SDS011;31091;48.758;9.150;2023-08-24T14:16:23;13.20;;;6.55;;
45354;SDS011;31091;48.758;9.150;2023-08-24T14:19:08;12.82;;;4.78;;
45354;SDS011;31091;48.758;9.150;2023-08-24T14:21:54;13.52;;;5.00;;
45354;SDS011;31091;48.758;9.150;2023-08-24T14:24:39;11.75;;;7.10;;
45354;SDS011;31091;48.758;9.150;2023-08-24T14:27:24;14.13;;;4.68;;
45354;SDS011;31091;48.758;9.150;2023-08-24T14:30:09;12.88;;;5.43;;
45354;SDS011;31091;48.758;9.150;2023-08-24T14:32:55;10.95;;;5.43;;
45354;SDS011;31091;48.758;9.150;2023-08-24T14:35:40;6.78;;;4.25;;
45354;SDS011;31091;48.758;9.150;2023-08-24T14:38:25;10.75;;;5.18;;
45354;SDS011;31091;48.758;9.150;2023-08-24T14:41:11;10.57;;;4.38;;
45354;SDS011;31091;48.758;9.150;2023-08-24T14:43:56;7.30;;;4.28;;
45354;SDS011;31091;48.758;9.150;2023-08-24T14:46:41;16.20;;;5.63;;
45354;SDS011;31091;48.758;9.150;2023-08-24T14:49:26;7.57;;;4.43;;
45354;SDS011;31091;48.758;9.150;2023-08-24T14:52:12;9.48;;;4.80;;
45354;SDS011;31091;48.758;9.150;2023-08-24T14:54:57;11.85;;;4.70;;
45354;SDS011;31091;48.758;9.150;2023-08-24T14:57:42;12.95;;;4.25;;
45354;SDS011;31091;48.758;9.150;2023-08-24T15:00:28;11.15;;;5.28;;
45354;SDS011;31091;48.758;9.150;2023-08-24T15:03:13;10.70;;;5.22;;
45354;SDS011;31091;48.758;9.150;2023-08-24T15:06:02;12.75;;;5.40;;
45354;SDS011;31091;48.758;9.150;2023-08-24T15:08:51;11.38;;;4.53;;
45354;SDS011;31091;48.758;9.150;2023-08-24T15:11:36;11.00;;;5.82;;
45354;SDS011;31091;48.758;9.150;2023-08-24T15:14:21;15.15;;;5.68;;
45354;SDS011;31091;48.758;9.150;2023-08-24T15:17:07;9.68;;;4.47;;
45354;SDS011;31091;48.758;9.150;2023-08-24T15:19:52;9.73;;;4.40;;
45354;SDS011;31091;48.758;9.150;2023-08-24T15:22:37;9.25;;;3.13;;
45354;SDS011;31091;48.758;9.150;2023-08-24T15:25:22;6.35;;;3.67;;
45354;SDS011;31091;48.758;9.150;2023-08-24T15:28:08;7.82;;;3.08;;
45354;SDS011;31091;48.758;9.150;2023-08-24T15:30:53;6.97;;;2.88;;
45354;SDS011;31091;48.758;9.150;2023-08-24T15:33:38;9.23;;;3.28;;
45354;SDS011;31091;48.758;9.150;2023-08-24T15:36:23;7.65;;;3.60;;
45354;SDS011;31091;48.758;9.150;2023-08-24T15:39:09;4.93;;;3.17;;
45354;SDS011;31091;48.758;9.150;2023-08-24T15:41:54;7.25;;;2.92;;
45354;SDS011;31091;48.758;9.150;2023-08-24T15:44:39;5.75;;;2.67;;
45354;SDS011;31091;48.758;9.150;2023-08-24T15:47:24;4.25;;;2.70;;
45354;SDS011;31091;48.758;9.150;2023-08-24T15:50:10;7.22;;;3.17;;
45354;SDS011;31091;48.758;9.150;2023-08-24T15:52:55;5.95;;;2.97;;
45354;SDS011;31091;48.758;9.150;2023-08-24T15:55:43;7.28;;;2.75;;
45354;SDS011;31091;48.758;9.150;2023-08-24T15:58:29;7.25;;;2.83;;
45354;SDS011;31091;48.758;9.150;2023-08-24T16:01:14;5.30;;;2.38;;
45354;SDS011;31091;48.758;9.150;2023-08-24T16:03:59;5.75;;;3.28;;
45354;SDS011;31091;48.758;9.150;2023-08-24T16:06:44;5.90;;;2.83;;
45354;SDS011;31091;48.758;9.150;2023-08-24T16:09:30;4.60;;;2.83;;
45354;SDS011;31091;48.758;9.150;2023-08-24T16:12:15;6.90;;;2.60;;
45354;SDS011;31091;48.758;9.150;2023-08-24T16:15:00;5.03;;;2.38;;
45354;SDS011;31091;48.758;9.150;2023-08-24T16:17:48;6.22;;;2.78;;
45354;SDS011;31091;48.758;9.150;2023-08-24T16:20:33;3.97;;;2.17;;
45354;SDS011;31091;48.758;9.150;2023-08-24T16:23:18;4.82;;;2.25;;
45354;SDS011;31091;48.758;9.150;2023-08-24T16:26:04;4.18;;;2.60;;
45354;SDS011;31091;48.758;9.150;2023-08-24T16:28:50;5.13;;;2.28;;
45354;SDS011;31091;48.758;9.150;2023-08-24T16:31:35;5.75;;;2.38;;
45354;SDS011;31091;48.758;9.150;2023-08-24T16:34:20;6.70;;;2.50;;
45354;SDS011;31091;48.758;9.150;2023-08-24T16:37:07;4.05;;;2.47;;
45354;SDS011;31091;48.758;9.150;2023-08-24T16:39:52;6.88;;;2.60;;
45354;SDS011;31091;48.758;9.150;2023-08-24T16:42:37;9.55;;;3.28;;